VCU/West, Virginia
Current Conditions -  °F | °C
As of 4:54 PM on Saturday 25 Oct 2014 (Local Time) from KRIC Reporting Station
Clear Clear  
Wind Chill: 71°   Ceiling: Unl
Heat Index: 71°   Visibility: 10mi
Dew Point: 38°   Wind: 10mph
Humidity: 30%   Direction: 230°SW
Pressure: 29.84"   Gusts: NA
Location:  37.549°N, 77.4581°W
Report Text: KRIC 252054Z 23009KT 10SM CLR 22/03 A2984 RMK AO2 SLP109 T02170033 56018
Loading
Personal Weather Stations






























Interactive Weather Map
Tropical Storm Tracking
New forecast layout! Learn more

10-Day Weather Forecast

Advertisements
Track Severe Weather on mobile